Date,TemperatureHighF,TemperatureAvgF,TemperatureLowF,DewpointHighF,DewpointAvgF,DewpointLowF,HumidityHigh,HumidityAvg,HumidityLow,PressureMaxIn,PressureMinIn,WindSpeedMaxMPH,WindSpeedAvgMPH,GustSpeedMaxMPH,PrecipitationSumIn
2013-1-31,15.0,13.2,12.0,14.0,11.2,10.0,94,93,93,29.86,29.55,0,0,0,0.00
2013-2-1,16.0,3.2,-1.0,15.0,1.2,-3.0,94,90,89,30.41,29.83,0,0,0,0.00
2013-2-2,19.0,10.6,0.0,17.0,8.7,-2.0,94,92,90,30.43,30.07,0,0,0,0.00
2013-2-3,17.0,14.2,9.0,16.0,12.4,7.0,94,93,92,30.08,29.85,0,0,0,0.00
2013-2-4,27.0,16.8,7.0,24.0,14.3,5.0,94,90,85,30.14,29.99,0,0,0,0.00
2013-2-5,29.0,27.8,27.0,25.0,23.6,23.0,87,84,80,29.99,29.85,0,0,0,0.00
2013-2-6,28.0,23.8,21.0,25.0,21.7,19.0,94,91,85,30.32,29.93,0,0,0,0.00
2013-2-7,32.0,27.0,23.0,30.0,24.6,21.0,94,91,82,30.35,30.09,0,0,0,0.00
2013-2-8,32.0,25.8,16.0,26.0,22.2,15.0,94,86,75,30.10,29.82,0,0,0,0.00
2013-2-9,31.0,17.9,10.0,25.0,16.1,8.0,95,92,76,30.47,30.09,0,0,0,0.00
2013-2-10,41.0,30.2,22.0,26.0,17.5,13.0,94,61,33,30.46,30.11,0,0,0,0.00
2013-2-11,47.0,38.6,29.0,42.0,27.5,17.0,92,65,39,30.12,29.83,0,0,0,0.00
2013-2-12,39.0,29.1,22.0,23.0,18.9,13.0,91,67,40,30.04,29.87,0,0,0,0.00
2013-2-13,36.0,28.9,22.0,25.0,12.9,-14.0,92,60,11,29.98,29.56,0,0,0,0.00
2013-2-14,31.0,24.0,16.0,29.0,21.5,14.0,93,90,81,30.06,29.78,15,4,0,0.00
2013-2-15,37.0,27.8,21.0,30.0,25.0,18.0,93,90,76,30.07,29.95,13,9,0,0.00
2013-2-16,20.0,14.5,9.0,18.0,12.5,7.0,93,93,92,29.98,29.89,14,6,0,0.00
2013-2-17,10.0,3.3,-1.0,8.0,1.3,-3.0,92,90,89,30.33,29.91,18,14,0,0.00
2013-2-18,38.0,22.5,4.0,25.0,13.8,0.0,91,70,54,30.50,30.16,16,9,0,0.00
2013-2-19,30.0,25.9,17.0,29.0,22.7,12.0,97,88,74,30.16,29.73,20,12,0,0.00
2013-2-20,17.0,11.3,8.0,14.0,9.1,5.0,93,90,81,30.22,29.88,18,10,0,0.00
2013-2-21,29.0,15.8,4.0,21.0,11.1,2.0,93,82,63,30.39,30.20,17,7,0,0.00
2013-2-22,34.0,26.1,19.0,30.0,21.0,12.0,97,81,62,30.38,30.11,17,8,0,0.00
2013-2-23,47.0,38.2,31.0,37.0,31.5,25.0,93,77,55,30.11,29.77,14,8,0,0.00
2013-2-24,33.0,25.7,16.0,29.0,21.0,14.0,93,83,62,30.08,29.78,12,7,0,0.00
2013-2-25,39.0,23.9,13.0,21.0,15.7,9.0,93,74,41,30.19,30.08,14,4,0,0.00
2013-2-26,34.0,26.2,20.0,30.0,22.0,16.0,97,84,71,30.14,29.64,18,5,0,0.00
2013-2-27,33.0,27.5,23.0,25.0,22.8,21.0,90,83,71,29.72,29.60,1,0,0,0.00
2013-2-28,23.0,19.8,18.0,21.0,17.8,16.0,93,93,91,29.83,29.65,0,0,0,0.00
2013-3-1,21.0,18.9,15.0,19.0,16.9,13.0,94,93,92,29.94,29.82,0,0,0,0.00
2013-3-2,17.0,13.9,12.0,16.0,11.9,10.0,94,93,93,29.98,29.90,0,0,0,0.00
2013-3-3,14.0,11.1,8.0,12.0,9.1,6.0,93,93,92,30.05,29.94,0,0,0,0.00
2013-3-4,28.0,14.5,7.0,25.0,12.6,5.0,94,92,87,30.21,30.04,0,0,0,0.00
2013-3-5,34.0,29.1,17.0,26.0,22.6,15.0,94,77,71,30.19,29.60,0,0,0,0.00
2013-3-6,25.0,20.9,17.0,22.0,18.8,15.0,95,92,88,30.14,29.59,1,0,0,0.00
2013-3-7,23.0,21.4,20.0,21.0,19.4,18.0,93,92,91,30.27,30.12,0,0,0,0.00
2013-3-8,22.0,19.7,16.0,20.0,17.8,14.0,94,93,92,30.46,30.23,0,0,0,0.00
2013-3-9,39.0,30.5,22.0,34.0,23.7,20.0,92,76,55,30.46,30.34,6,1,0,0.00
2013-3-10,50.0,40.5,35.0,31.0,27.1,24.0,67,59,43,30.35,30.14,14,8,0,0.00
2013-3-11,42.0,39.5,38.0,37.0,31.6,27.0,91,74,62,30.14,29.83,14,11,0,0.00
2013-3-12,43.0,30.3,22.0,34.0,24.5,20.0,91,79,68,29.98,29.75,11,2,0,0.00
2013-3-13,24.0,19.1,13.0,22.0,17.1,11.0,93,92,89,30.11,29.94,0,0,0,0.00
2013-3-14,24.0,15.3,9.0,20.0,11.7,7.0,93,87,71,30.29,30.11,16,3,0,0.00
2013-3-15,40.0,28.7,18.0,31.0,22.3,11.0,88,77,68,30.24,29.92,19,14,0,0.00
2013-3-16,46.0,39.9,34.0,40.0,33.0,27.0,92,77,66,29.93,29.68,19,13,0,0.00
2013-3-17,36.0,30.9,29.0,30.0,24.7,22.0,92,77,71,30.11,29.84,15,7,0,0.00
2013-3-18,38.0,27.8,22.0,31.0,22.8,20.0,96,82,70,30.11,29.88,13,5,0,0.00
2013-3-19,39.0,31.0,22.0,31.0,18.4,3.0,92,62,33,29.94,29.78,27,16,0,0.00
2013-3-20,31.0,22.8,16.0,20.0,11.4,5.0,91,63,45,30.02,29.83,20,11,0,0.00
2013-3-21,18.0,9.2,4.0,16.0,7.2,2.0,92,91,86,30.04,29.75,13,9,0,0.00
2013-3-22,27.0,15.5,7.0,17.0,10.2,5.0,92,80,58,30.13,30.03,14,10,0,0.00
2013-3-23,37.0,25.8,18.0,17.0,13.0,10.0,74,59,40,30.13,30.01,12,8,0,0.00
2013-3-24,27.0,24.3,22.0,21.0,17.7,13.0,90,77,56,30.01,29.50,18,11,0,0.00
2013-3-25,22.0,20.4,19.0,21.0,18.5,17.0,94,91,88,29.77,29.49,18,7,0,0.00
2013-3-26,23.0,21.1,20.0,20.0,18.9,18.0,92,91,88,30.14,29.77,12,6,0,0.00
2013-3-27,22.0,19.7,18.0,20.0,17.7,16.0,94,92,90,30.26,30.10,10,7,0,0.00
2013-3-28,24.0,21.5,18.0,22.0,19.1,16.0,95,91,88,30.35,30.22,12,8,0,0.00
2013-3-29,31.0,26.6,23.0,29.0,23.1,20.0,92,87,75,30.36,30.27,10,7,0,0.00
2013-3-30,45.0,34.7,27.0,29.0,24.5,22.0,90,69,40,30.29,30.09,10,5,0,0.00
2013-3-31,40.0,37.2,32.0,31.0,26.9,-99.9,91,69,56,30.09,29.75,15,9,0,0.00
2013-4-1,35.0,30.2,22.0,31.0,23.7,15.0,92,76,68,29.98,29.79,15,12,0,0.00
2013-4-2,30.0,21.6,15.0,16.0,11.7,7.0,86,67,41,30.23,29.98,13,9,0,0.00
2013-4-3,33.0,23.2,16.0,12.0,9.8,6.0,80,58,34,30.39,30.23,14,8,0,0.00
2013-4-4,34.0,27.6,19.0,25.0,12.6,0.0,86,54,28,30.40,30.08,12,5,0,0.00
2013-4-5,45.0,36.2,28.0,31.0,24.9,21.0,92,64,46,30.09,29.97,11,6,0,0.00
2013-4-6,53.0,39.3,27.0,27.0,11.5,-16.0,72,37,11,30.24,30.06,9,4,0,0.00
2013-4-7,59.0,46.8,36.0,38.0,32.2,21.0,73,57,45,30.17,30.02,17,10,0,0.00
2013-4-8,63.0,53.5,46.0,44.0,39.7,34.0,69,60,46,30.06,29.96,13,8,0,0.00
2013-4-9,70.0,58.7,50.0,51.0,46.8,42.0,87,66,49,30.10,29.97,16,10,0,0.00
2013-4-10,75.0,62.9,53.0,53.0,47.7,39.0,85,59,38,29.98,29.83,16,11,0,0.00
2013-4-11,71.0,62.3,56.0,53.0,47.7,34.0,79,60,26,29.83,29.59,9,6,0,0.00
2013-4-12,57.0,50.1,35.0,52.0,40.9,30.0,90,71,50,29.73,29.47,21,12,0,0.00
2013-4-13,51.0,39.7,31.0,31.0,27.1,19.0,91,65,34,30.01,29.73,20,13,0,0.00
2013-4-14,62.0,47.5,36.0,36.0,30.9,24.0,78,55,30,30.12,30.01,16,9,0,0.00
2013-4-15,52.0,43.0,40.0,40.0,32.8,30.0,89,67,49,30.21,30.00,12,8,0,0.00
2013-4-16,69.0,54.0,44.0,54.0,43.9,34.0,91,69,50,30.29,30.13,11,7,0,0.00
2013-4-17,65.0,57.5,51.0,55.0,50.6,42.0,90,78,60,30.18,30.05,11,6,0,0.00
2013-4-18,59.0,54.7,52.0,54.0,48.1,41.0,90,79,64,30.06,29.88,13,8,0,0.00
2013-4-19,55.0,47.2,31.0,50.0,38.8,26.0,91,73,65,29.88,29.58,16,11,0,0.00
2013-4-20,41.0,30.6,23.0,27.0,22.4,19.0,93,73,46,30.38,29.74,21,13,0,0.00
2013-4-21,48.0,35.0,24.0,28.0,22.3,19.0,82,62,35,30.53,30.37,7,3,0,0.00
2013-4-22,48.0,36.0,27.0,28.0,23.5,17.0,84,63,30,30.47,30.33,13,7,0,0.00
2013-4-23,63.0,46.4,31.0,39.0,31.7,25.0,91,62,25,30.33,30.05,11,6,0,0.00
2013-4-24,65.0,49.8,32.0,49.0,42.3,25.0,91,77,50,30.05,29.80,22,11,0,0.00
2013-4-25,50.0,35.1,25.0,37.0,22.7,10.0,92,65,21,30.37,29.98,14,8,0,0.00
2013-4-26,55.0,42.3,31.0,32.0,26.1,21.0,88,56,30,30.44,30.35,9,6,0,0.00
2013-4-27,61.0,49.0,42.0,40.0,31.7,24.0,87,52,29,30.38,30.18,8,4,0,0.00
2013-4-28,44.0,41.5,40.0,41.0,33.4,-99.9,92,76,69,30.18,30.03,13,8,0,0.00
2013-4-29,60.0,46.4,40.0,51.0,38.2,31.0,90,73,65,30.06,29.98,10,5,0,0.00
2013-4-30,64.0,50.5,45.0,50.0,41.7,34.0,91,73,55,30.17,30.01,13,4,0,0.00
2013-5-1,56.0,48.1,43.0,47.0,37.6,33.0,91,67,53,30.31,30.16,14,10,0,0.00
2013-5-2,63.0,49.8,40.0,45.0,39.5,27.0,88,69,47,30.31,30.22,15,7,0,0.00
2013-5-3,53.0,45.2,38.0,41.0,33.5,21.0,89,65,38,30.22,30.15,23,13,0,0.00
2013-5-4,51.0,42.2,35.0,40.0,32.8,18.0,91,71,27,30.16,30.08,24,17,0,0.00
2013-5-5,54.0,43.5,35.0,41.0,29.3,13.0,91,61,22,30.10,29.99,28,19,0,0.00
2013-5-6,45.0,43.0,39.0,36.0,33.5,29.0,79,69,66,30.01,29.92,30,23,0,0.00
2013-5-7,47.0,44.6,42.0,42.0,36.0,32.0,89,72,67,29.97,29.88,18,8,0,0.00
2013-5-8,53.0,43.3,40.0,47.0,36.6,31.0,92,77,68,30.01,29.88,8,5,0,0.00
2013-5-9,62.0,50.7,44.0,51.0,41.5,35.0,90,71,53,30.07,29.96,16,9,0,0.00
2013-5-10,67.0,55.3,51.0,54.0,47.2,-99.9,90,78,59,30.06,29.83,14,8,0,0.00
2013-5-11,56.0,50.0,44.0,52.0,42.4,33.0,91,75,66,29.83,29.76,18,12,0,0.00
2013-5-12,43.0,35.7,31.0,33.0,26.3,-99.9,92,71,56,30.06,29.76,15,11,0,0.00
2013-5-13,40.0,31.2,27.0,30.0,25.3,21.0,91,79,53,30.22,30.01,13,9,0,0.00
2013-5-14,56.0,41.7,28.0,39.0,28.1,25.0,92,62,34,30.26,30.04,14,7,0,0.00
2013-5-15,75.0,62.2,53.0,53.0,48.9,42.0,91,65,35,30.04,29.81,21,16,0,0.00
2013-5-16,64.0,51.3,50.0,55.0,27.8,-99.9,90,76,62,29.96,29.77,21,12,0,0.00
2013-5-17,64.0,55.8,49.0,56.0,45.0,-99.9,91,78,60,30.11,29.96,9,4,0,0.00
2013-5-18,67.0,56.7,54.0,58.0,51.1,43.0,90,82,65,30.10,30.03,7,4,0,0.00
2013-5-19,56.0,54.2,53.0,46.0,43.8,42.0,69,67,65,30.09,30.01,8,5,0,0.00
2013-5-20,69.0,59.9,54.0,62.0,53.0,44.0,91,79,68,30.07,29.96,9,5,0,0.00
2013-5-21,76.0,64.6,57.0,61.0,56.2,51.0,92,76,45,29.96,29.85,12,6,0,0.00
2013-5-22,72.0,60.9,55.0,61.0,54.0,49.0,91,78,66,29.90,29.79,12,7,0,0.00
2013-5-23,67.0,56.1,49.0,55.0,48.6,40.0,92,77,54,29.84,29.75,14,8,0,0.00
2013-5-24,49.0,36.7,30.0,40.0,30.5,25.0,93,78,71,30.20,29.76,19,13,0,0.00
2013-5-25,48.0,36.6,24.0,32.0,25.3,13.0,93,67,36,30.34,30.20,16,10,0,0.00
2013-5-26,55.0,44.1,35.0,31.0,25.9,18.0,82,52,25,30.30,30.23,12,8,0,0.00
2013-5-27,61.0,50.0,42.0,50.0,35.9,23.0,90,59,44,30.27,30.16,10,4,0,0.00
2013-5-28,69.0,60.4,52.0,56.0,52.1,49.0,92,76,56,30.17,30.04,18,10,0,0.00
2013-5-29,74.0,63.6,57.0,56.0,53.9,51.0,91,73,44,30.13,30.06,16,9,0,0.00
2013-5-30,79.0,67.8,59.0,60.0,55.2,51.0,89,67,40,30.16,30.06,9,5,0,0.00
2013-5-31,78.0,66.0,57.0,60.0,53.0,43.0,91,65,33,30.09,29.98,11,7,0,0.00
2013-6-1,77.0,66.4,59.0,62.0,56.9,54.0,90,73,49,29.99,29.87,10,7,0,0.00
2013-6-2,66.0,59.2,54.0,60.0,53.0,-99.9,91,84,69,29.86,29.78,16,9,0,0.00
2013-6-3,64.0,55.5,51.0,55.0,50.0,43.0,92,82,66,29.96,29.81,12,7,0,0.00
2013-6-4,69.0,56.1,46.0,50.0,44.5,39.0,91,67,38,30.09,29.96,10,6,0,0.00
2013-6-5,67.0,58.0,53.0,58.0,51.3,43.0,91,79,68,30.09,29.95,10,6,0,0.00
2013-6-6,57.0,54.5,52.0,47.0,44.5,42.0,71,69,68,29.98,29.80,10,6,0,0.00
2013-6-7,60.0,56.8,50.0,51.0,47.0,41.0,71,70,69,29.82,29.64,10,4,0,0.00
2013-6-8,69.0,57.1,47.0,54.0,47.6,38.0,91,71,56,30.09,29.78,10,6,0,0.00
2013-6-9,74.0,64.0,57.0,59.0,54.1,48.0,92,72,41,30.09,29.99,8,4,0,0.00
2013-6-10,64.0,58.0,54.0,56.0,51.1,47.0,92,78,68,30.00,29.77,14,8,0,0.00
2013-6-11,62.0,55.4,53.0,58.0,48.0,43.0,92,76,69,29.95,29.81,15,11,0,0.00
2013-6-12,72.0,62.4,58.0,65.0,54.8,47.0,91,77,67,29.95,29.82,12,9,0,0.00
2013-6-13,65.0,58.5,49.0,62.0,52.5,39.0,91,81,70,29.82,29.50,23,14,0,0.00
2013-6-14,59.0,50.6,45.0,53.0,44.5,37.0,93,80,71,30.06,29.70,11,7,0,0.00
2013-6-15,68.0,56.5,49.0,52.0,49.5,46.0,93,79,53,30.12,30.03,10,6,0,0.00
2013-6-16,64.0,58.4,54.0,61.0,54.0,48.0,92,86,70,30.05,29.93,14,9,0,0.00
2013-6-17,72.0,61.7,56.0,61.0,54.2,46.0,92,77,67,29.97,29.88,11,7,0,0.00
2013-6-18,61.0,57.5,53.0,59.0,54.0,47.0,93,88,80,29.91,29.78,9,4,0,0.00
2013-6-19,69.0,59.2,53.0,57.0,51.6,46.0,92,76,61,30.08,29.89,7,4,0,0.00
2013-6-20,74.0,60.8,54.0,56.0,51.9,46.0,92,74,52,30.16,30.07,7,4,0,0.00
2013-6-22,71.0,67.3,62.0,60.0,57.4,53.0,84,71,55,30.19,30.08,5,3,0,0.00
2013-6-23,76.0,65.0,58.0,61.0,57.3,53.0,92,77,53,30.13,30.04,8,3,0,0.00
2013-6-24,74.0,65.4,61.0,64.0,59.2,53.0,92,81,66,30.11,30.01,8,4,0,0.00
2013-6-25,77.0,66.2,59.0,63.0,59.0,51.0,92,79,60,30.04,29.91,12,7,0,0.00
2013-6-26,72.0,64.2,61.0,63.0,59.1,52.0,92,84,70,29.92,29.80,15,9,0,0.00
2013-6-27,62.0,60.1,58.0,60.0,53.3,49.0,92,78,70,29.83,29.65,14,9,0,0.00
2013-6-28,71.0,62.5,55.0,62.0,53.9,49.0,90,74,60,29.67,29.50,20,13,0,0.00
2013-6-29,69.0,59.8,52.0,60.0,53.9,49.0,93,81,60,29.69,29.51,12,7,0,0.00
2013-6-30,76.0,64.9,58.0,61.0,56.6,53.0,92,76,49,29.76,29.67,8,3,0,0.00
2013-7-1,71.0,61.3,56.0,62.0,56.0,49.0,93,83,70,29.92,29.74,8,5,0,0.00
2013-7-2,65.0,60.7,59.0,61.0,55.5,51.0,93,83,73,30.09,29.91,9,6,0,0.00
2013-7-3,67.0,60.9,59.0,63.0,54.7,50.0,93,80,72,30.19,30.09,11,6,0,0.00
2013-7-4,72.0,64.2,59.0,65.0,57.8,51.0,93,80,71,30.22,30.11,11,6,0,0.00
2013-7-5,72.0,63.8,60.0,66.0,59.1,52.0,93,85,76,30.16,30.09,11,8,0,0.00
2013-7-6,75.0,65.3,60.0,65.0,60.8,56.0,93,86,66,30.15,30.04,10,6,0,0.00
2013-7-7,70.0,61.7,58.0,65.0,57.7,51.0,93,87,75,30.08,29.98,12,7,0,0.00
2013-7-8,68.0,59.5,54.0,62.0,54.5,47.0,94,84,73,30.14,30.04,12,9,0,0.00
2013-7-9,74.0,64.9,60.0,64.0,60.3,56.0,93,86,65,30.14,30.01,11,8,0,0.00
2013-7-10,75.0,63.4,58.0,67.0,58.7,-99.9,93,88,74,30.03,29.85,12,8,0,0.00
2013-7-11,70.0,62.1,57.0,63.0,57.4,49.0,93,85,75,29.89,29.84,11,4,0,0.00
2013-7-12,62.0,56.7,53.0,57.0,51.4,45.0,94,83,74,30.04,29.87,12,8,0,0.00
2013-7-13,66.0,59.3,55.0,62.0,53.2,47.0,93,80,72,30.19,30.04,15,9,0,0.00
2013-7-14,74.0,63.9,58.0,63.0,58.2,51.0,93,82,66,30.29,30.18,17,8,0,0.00
2013-7-15,76.0,67.4,60.0,66.0,59.7,53.0,92,77,62,30.30,30.21,8,3,0,0.00
2013-7-16,79.0,68.5,63.0,67.0,63.1,60.0,93,83,66,30.24,30.18,8,4,0,0.00
2013-7-17,73.0,68.0,64.0,68.0,64.3,61.0,93,88,76,30.22,30.11,8,5,0,0.00
2013-7-18,80.0,69.2,64.0,68.0,64.8,62.0,93,86,67,30.14,30.02,7,4,0,0.00
2013-7-19,81.0,67.9,59.0,69.0,63.6,54.0,93,87,59,30.02,29.88,16,7,0,0.00
2013-7-20,77.0,65.5,62.0,67.0,59.0,53.0,93,80,64,29.92,29.83,12,9,0,0.00
2013-7-21,72.0,64.2,59.0,66.0,60.1,52.0,93,87,70,29.95,29.86,11,5,0,0.00
2013-7-22,75.0,64.4,60.0,65.0,58.4,53.0,93,81,68,29.91,29.73,10,5,0,0.00
2013-7-23,70.0,62.2,58.0,63.0,55.5,50.0,93,79,72,29.77,29.69,15,11,0,0.00
2013-7-24,70.0,61.0,52.0,60.0,54.3,49.0,93,79,68,29.86,29.70,12,7,0,0.00
2013-7-25,67.0,56.7,50.0,54.0,51.1,46.0,94,83,60,30.03,29.84,8,3,0,0.00
2013-7-26,72.0,60.9,51.0,57.0,52.4,48.0,92,75,51,30.06,29.99,6,3,0,0.00
2013-7-27,61.0,57.9,56.0,58.0,52.1,48.0,94,81,73,29.99,29.87,10,6,0,0.00
2013-7-28,66.0,58.6,52.0,57.0,52.4,46.0,93,80,70,29.98,29.85,15,8,0,0.00
2013-7-29,62.0,52.7,47.0,50.0,47.4,44.0,94,83,61,30.21,29.98,10,7,0,0.00
2013-7-30,69.0,58.2,51.0,56.0,52.0,48.0,93,81,57,30.22,30.13,7,4,0,0.00
2013-7-31,64.0,57.1,53.0,58.0,52.3,47.0,93,84,74,30.13,29.96,9,5,0,0.00
2013-8-1,63.0,58.3,56.0,60.0,52.0,48.0,93,80,74,29.96,29.87,13,8,0,0.00
2013-8-2,69.0,58.6,52.0,56.0,50.8,44.0,92,76,55,30.01,29.89,11,8,0,0.00
2013-8-3,66.0,57.5,55.0,59.0,52.8,48.0,93,84,73,30.01,29.93,14,8,0,0.00
2013-8-4,61.0,55.3,51.0,53.0,49.6,45.0,93,81,72,30.04,29.94,9,5,0,0.00
2013-8-5,67.0,55.9,48.0,54.0,49.2,45.0,94,79,55,30.09,29.98,9,3,0,0.00
2013-8-6,74.0,61.5,53.0,61.0,54.8,47.0,93,79,53,29.99,29.94,7,4,0,0.00
2013-8-7,72.0,63.0,60.0,66.0,57.6,51.0,93,83,73,29.98,29.92,10,6,0,0.00
2013-8-8,72.0,62.8,60.0,67.0,55.5,51.0,93,77,72,29.99,29.93,11,6,0,0.00
2013-8-9,68.0,63.0,62.0,65.0,56.0,53.0,94,78,72,29.97,29.90,19,12,0,0.00
2013-8-10,71.0,62.8,58.0,65.0,55.9,49.0,94,79,71,30.05,29.97,11,5,0,0.00
2013-8-11,70.0,63.5,59.0,65.0,59.2,52.0,94,86,74,30.06,29.98,7,4,0,0.00
2013-8-12,74.0,63.1,59.0,63.0,56.4,50.0,94,79,67,30.02,29.88,9,6,0,0.00
2013-8-13,65.0,58.6,54.0,61.0,52.2,-99.9,94,82,73,29.89,29.75,16,8,0,0.00
2013-8-14,54.0,46.8,41.0,47.0,39.4,-99.9,94,83,76,30.13,29.83,8,5,0,0.00
2013-8-15,64.0,47.3,43.0,50.0,32.9,-99.9,94,77,56,30.19,30.10,8,4,0,0.00
2013-8-16,65.0,54.3,47.0,53.0,45.4,-99.9,93,78,60,30.14,30.09,6,3,0,0.00
2013-8-17,61.0,53.0,48.0,54.0,48.8,44.0,94,86,72,30.19,30.14,17,9,0,0.00
2013-8-18,61.0,55.4,52.0,59.0,48.0,-99.9,94,79,73,30.20,30.13,17,6,0,0.00
2013-8-19,69.0,56.0,56.0,61.0,40.5,-99.9,94,78,71,30.15,30.05,9,6,0,0.00
2013-8-20,74.0,62.3,55.0,62.0,55.1,-99.9,94,82,55,30.15,30.07,7,4,0,0.00
2013-8-21,69.0,62.4,56.0,65.0,59.3,53.0,94,90,79,30.14,30.05,13,5,0,0.00
2013-8-22,70.0,61.4,56.0,63.0,56.5,51.0,93,84,74,30.09,29.99,12,8,0,0.00
2013-8-23,63.0,57.8,52.0,60.0,54.1,49.0,94,88,75,30.10,29.95,13,7,0,0.00
2013-8-24,67.0,57.8,51.0,55.0,51.3,48.0,92,80,59,30.29,30.10,10,5,0,0.00
2013-8-25,70.0,57.4,52.0,57.0,50.5,-99.9,93,81,59,30.35,30.25,6,4,0,0.00
2013-8-26,71.0,60.1,53.0,58.0,53.7,49.0,93,80,62,30.28,30.08,11,7,0,0.00
2013-8-27,66.0,61.4,60.0,63.0,54.7,51.0,93,79,72,30.08,29.98,16,10,0,0.00
2013-8-28,68.0,64.6,63.0,64.0,58.5,54.0,94,80,72,29.88,29.80,15,11,0,0.00
2013-8-29,70.0,64.0,60.0,65.0,57.9,52.0,94,81,72,29.98,29.83,13,5,0,0.00
2013-8-30,76.0,64.1,58.0,65.0,57.9,50.0,94,80,68,29.99,29.85,9,5,0,0.00
2013-8-31,74.0,64.9,60.0,65.0,58.9,54.0,93,81,64,29.88,29.77,12,7,0,0.00
2013-9-1,71.0,62.9,60.0,64.0,58.0,-99.9,94,87,73,29.82,29.75,10,5,0,0.00
2013-9-2,73.0,63.5,59.0,64.0,57.2,50.0,94,81,66,29.82,29.75,14,9,0,0.00
2013-9-3,66.0,59.4,52.0,58.0,52.9,48.0,94,79,68,29.96,29.75,13,8,0,0.00
2013-9-4,71.0,57.4,48.0,54.0,48.4,42.0,94,75,38,30.09,29.95,9,6,0,0.00
2013-9-5,64.0,56.7,51.0,57.0,51.8,34.0,94,84,45,30.11,30.05,13,9,0,0.00
2013-9-6,70.0,56.8,49.0,54.0,46.8,33.0,94,74,26,30.16,30.08,6,3,0,0.00
2013-9-7,69.0,57.9,52.0,52.0,47.6,35.0,93,71,32,30.08,29.95,10,8,0,0.00
2013-9-8,69.0,59.9,54.0,61.0,54.9,-99.9,93,86,73,30.01,29.92,10,6,0,0.00
2013-9-9,70.0,62.4,57.0,63.0,57.3,50.0,93,84,76,30.09,30.01,9,4,0,0.00
2013-9-10,77.0,65.7,60.0,65.0,59.3,51.0,93,80,65,30.17,30.09,10,6,0,0.00
2013-9-11,77.0,65.4,62.0,66.0,61.6,58.0,93,88,63,30.15,30.00,8,6,0,0.00
2013-9-12,69.0,61.2,55.0,66.0,54.1,47.0,92,78,72,30.02,29.77,15,9,0,0.00
2013-9-13,56.0,51.0,43.0,49.0,44.4,41.0,94,79,60,29.93,29.71,13,9,0,0.00
2013-9-14,58.0,45.6,36.0,46.0,40.1,33.0,95,82,54,30.16,29.93,8,4,0,0.00
2013-9-15,63.0,50.8,45.0,53.0,44.8,-99.9,94,84,65,30.19,30.08,13,8,0,0.00
2013-9-16,54.0,49.7,43.0,52.0,45.4,40.0,95,85,76,30.23,30.03,15,8,0,0.00
2013-9-17,57.0,48.7,43.0,48.0,43.7,39.0,94,83,66,30.35,30.23,10,5,0,0.00
2013-9-18,52.0,44.1,42.0,44.0,40.5,38.0,94,87,80,30.26,30.14,7,4,0,0.00
2013-9-19,66.0,56.8,52.0,56.0,50.6,45.0,94,80,65,30.15,30.02,8,5,0,0.00
2013-9-20,67.0,59.6,56.0,63.0,55.1,49.0,94,85,74,30.03,29.88,7,3,0,0.00
2013-9-21,57.0,54.1,48.0,49.0,46.7,41.0,78,76,74,29.88,29.64,12,7,0,0.00
2013-9-22,55.0,46.9,43.0,48.0,40.7,-99.9,95,82,74,29.94,29.73,10,6,0,0.00
2013-9-23,58.0,47.2,39.0,47.0,41.8,37.0,95,82,61,30.06,29.94,9,4,0,0.00
2013-9-24,67.0,55.5,45.0,51.0,48.4,43.0,94,79,50,30.06,29.92,14,7,0,0.00
2013-9-25,62.0,53.3,48.0,53.0,49.3,45.0,94,86,69,29.94,29.83,6,2,0,0.00
2013-9-26,62.0,54.1,47.0,53.0,47.7,44.0,94,80,59,30.04,29.88,7,4,0,0.00
2013-9-27,65.0,54.3,48.0,51.0,45.6,40.0,94,73,53,30.14,30.03,7,3,0,0.00
2013-9-28,55.0,49.0,44.0,50.0,45.4,40.0,94,88,75,30.22,30.13,7,4,0,0.00
2013-9-29,61.0,49.3,41.0,51.0,43.6,-99.9,94,84,68,30.17,30.05,7,2,0,0.00
2013-9-30,62.0,52.8,47.0,52.0,49.7,45.0,94,89,68,30.05,29.99,7,3,0,0.00
2013-10-1,53.0,52.5,52.0,51.0,50.5,50.0,94,94,93,30.07,30.03,10,7,0,0.00
2013-10-2,65.0,57.2,52.0,55.0,51.1,45.0,94,80,66,30.12,30.06,14,7,0,0.00
2013-10-3,71.0,60.9,56.0,57.0,54.5,51.0,94,80,60,30.10,30.01,6,2,0,0.00
2013-10-4,71.0,61.2,56.0,59.0,56.2,51.0,94,84,65,30.09,30.01,10,6,0,0.00
2013-10-5,71.0,62.1,57.0,60.0,56.2,53.0,94,82,62,30.08,29.99,11,6,0,0.00
2013-10-6,69.0,61.5,57.0,60.0,56.7,54.0,94,85,63,30.00,29.80,10,7,0,0.00
2013-10-7,57.0,47.3,39.0,55.0,43.6,36.0,95,87,78,30.06,29.68,17,10,0,0.00
2013-10-8,54.0,43.8,35.0,40.0,36.3,32.0,95,77,46,30.28,30.06,18,8,0,0.00
2013-10-9,52.0,44.8,40.0,42.0,30.6,23.0,94,60,36,30.27,30.19,20,12,0,0.00
2013-10-10,58.0,52.2,47.0,54.0,46.7,41.0,94,82,75,30.19,29.98,13,8,0,0.00
2013-10-11,53.0,50.5,49.0,50.0,44.1,42.0,94,79,75,30.00,29.93,8,5,0,0.00
2013-10-12,58.0,52.6,49.0,56.0,46.4,42.0,94,80,75,30.11,29.97,10,6,0,0.00
2013-10-13,56.0,51.5,50.0,54.0,44.9,-99.9,94,81,75,30.23,30.10,9,5,0,0.00
2013-10-14,60.0,52.8,50.0,56.0,47.5,43.0,94,82,75,30.24,30.15,7,3,0,0.00
2013-10-15,58.0,52.7,49.0,50.0,44.1,34.0,95,74,51,30.18,30.03,8,5,0,0.00
2013-10-16,59.0,53.9,49.0,52.0,47.9,32.0,94,80,50,30.03,29.89,9,6,0,0.00
2013-10-17,54.0,50.5,38.0,47.0,43.2,32.0,82,76,75,29.91,29.71,18,9,0,0.00
2013-10-18,53.0,42.0,33.0,37.0,33.5,29.0,95,73,49,30.02,29.82,16,8,0,0.00
2013-10-19,47.0,42.4,32.0,44.0,38.2,27.0,95,85,74,30.01,29.78,17,9,0,0.00
2013-10-20,47.0,35.5,28.0,36.0,26.9,-99.9,95,75,48,30.15,29.87,16,8,0,0.00
2013-10-21,56.0,45.5,38.0,39.0,33.6,25.0,81,64,42,30.14,29.92,10,7,0,0.00
2013-10-22,46.0,39.2,33.0,38.0,33.3,20.0,94,80,54,29.93,29.80,16,10,0,0.00
2013-10-23,35.0,30.0,25.0,30.0,25.2,17.0,94,83,51,29.95,29.70,14,8,0,0.00
2013-10-24,25.0,23.6,21.0,24.0,22.6,20.0,95,94,94,30.22,29.94,12,8,0,0.00
2013-10-25,26.0,23.3,22.0,24.0,22.3,21.0,95,95,93,30.42,30.21,10,6,0,0.00
2013-10-26,42.0,28.7,20.0,31.0,22.8,19.0,95,80,42,30.39,30.08,18,10,0,0.00
2013-10-27,44.0,35.2,30.0,34.0,29.1,-99.9,94,81,64,30.16,30.03,16,10,0,0.00
2013-10-28,53.0,42.2,38.0,42.0,36.1,-99.9,94,83,57,30.27,30.15,12,8,0,0.00
2013-10-29,56.0,45.5,40.0,44.0,38.5,35.0,94,77,53,30.33,30.24,8,5,0,0.00
2013-10-30,51.0,47.5,44.0,44.0,41.6,39.0,94,80,76,30.26,30.14,10,7,0,0.00
2013-10-31,55.0,51.4,48.0,52.0,47.3,43.0,94,86,75,30.17,29.68,14,9,0,0.00
2013-11-1,56.0,49.2,42.0,50.0,42.5,38.0,95,78,59,29.68,29.53,22,12,0,0.00
2013-11-2,45.0,37.8,31.0,39.0,33.7,27.0,94,86,65,29.92,29.64,17,11,0,0.00
2013-11-3,34.0,29.9,26.0,31.0,25.2,-99.9,95,85,79,30.44,29.92,12,6,0,0.00
2013-11-4,42.0,32.8,27.0,28.0,22.4,12.0,91,66,48,30.56,30.42,8,4,0,0.00
2013-11-5,47.0,38.6,33.0,37.0,27.3,20.0,94,65,42,30.55,30.42,13,7,0,0.00
2013-11-6,54.0,45.4,41.0,48.0,40.3,35.0,94,82,76,30.42,30.05,15,10,0,0.00
2013-11-7,47.0,35.6,24.0,45.0,31.9,23.0,95,86,77,30.06,29.89,16,12,0,0.00
2013-11-8,30.0,24.9,22.0,24.0,22.1,21.0,95,89,77,30.37,30.07,16,11,0,0.00
2013-11-9,48.0,36.4,25.0,22.0,15.3,-99.9,85,46,26,30.36,30.12,21,11,0,0.00
2013-11-10,40.0,33.1,25.0,32.0,26.4,22.0,91,77,57,30.27,30.04,22,15,0,0.00
2013-11-11,51.0,41.2,24.0,23.0,7.7,-9.0,93,33,10,30.34,30.05,16,11,0,0.00
2013-11-12,41.0,21.0,14.0,31.0,17.8,12.0,94,89,34,30.42,29.97,17,8,0,0.00
2013-11-13,24.0,15.4,10.0,19.0,10.6,-4.0,94,84,30,30.60,30.42,13,10,0,0.00
2013-11-14,45.0,36.0,24.0,15.0,6.3,-7.0,37,29,20,30.54,30.29,20,12,0,0.00
2013-11-15,48.0,39.8,35.0,36.0,16.9,1.0,93,43,20,30.29,30.18,17,8,0,0.00
2013-11-16,51.0,42.6,37.0,47.0,37.8,-99.9,95,86,78,30.25,30.16,9,6,0,0.00
2013-11-17,51.0,46.7,42.0,47.0,40.7,36.0,94,80,75,30.16,29.71,17,8,0,0.00
2013-11-18,45.0,36.8,27.0,40.0,29.4,23.0,95,76,47,29.93,29.76,22,17,0,0.00
2013-11-19,27.0,21.9,19.0,24.0,20.2,18.0,95,92,83,30.39,29.92,22,8,0,0.00
2013-11-20,33.0,25.2,20.0,23.0,17.9,13.0,94,75,49,30.51,30.40,16,10,0,0.00
2013-11-21,43.0,35.1,25.0,41.0,31.9,23.0,94,88,77,30.55,30.39,14,9,0,0.00
2013-11-22,48.0,45.2,37.0,46.0,38.9,31.0,94,79,76,30.39,30.03,17,12,0,0.00
2013-11-23,36.0,23.5,9.0,30.0,20.0,-99.9,95,89,79,30.20,30.04,10,1,0,0.00
2013-11-24,10.0,4.6,1.0,7.0,2.3,-1.0,92,90,83,30.62,30.20,0,0,0,0.00
2013-11-25,35.0,23.6,4.0,21.0,2.1,-12.0,94,44,18,30.64,30.34,17,7,0,0.00
2013-11-26,39.0,33.9,23.0,33.0,28.9,22.0,94,82,78,30.34,29.66,14,9,0,0.00
2013-11-27,34.0,17.4,7.0,28.0,15.8,5.0,95,93,79,30.09,29.58,13,1,0,0.00
2013-12-3,41.0,36.8,33.0,37.0,33.6,30.0,94,89,80,29.96,29.84,8,4,0,0.00
2013-12-4,51.0,43.5,37.0,46.0,39.0,33.0,94,85,76,30.03,29.95,9,6,0,0.00
2013-12-5,58.0,50.5,44.0,52.0,47.0,38.0,95,88,77,30.01,29.89,15,11,0,0.00
2013-12-6,52.0,44.3,31.0,44.0,37.6,25.0,85,77,75,29.99,29.83,16,8,0,0.00
2013-12-7,35.0,21.6,17.0,29.0,19.0,-99.9,95,93,79,30.50,30.00,0,0,0,0.00
2013-12-8,32.0,23.4,18.0,28.0,21.5,16.0,95,92,80,30.51,30.27,0,0,0,0.00
2013-12-9,42.0,35.1,24.0,36.0,30.2,19.0,95,82,72,30.24,30.01,19,12,0,0.00
2013-12-10,28.0,18.4,12.0,23.0,16.1,10.0,95,91,58,30.27,29.90,15,11,0,0.00
2013-12-11,27.0,16.8,9.0,17.0,11.7,7.0,93,82,57,30.47,30.27,16,13,0,0.00
2013-12-12,16.0,9.7,4.0,14.0,5.1,1.0,93,82,58,30.42,30.33,19,12,0,0.00
2013-12-13,27.0,18.7,10.0,14.0,7.8,3.0,76,63,51,30.42,30.36,17,12,0,0.00
2013-12-14,36.0,27.8,24.0,30.0,23.2,-99.9,94,86,51,30.37,29.76,16,9,0,0.00
2013-12-15,36.0,22.1,17.0,30.0,20.1,16.0,95,91,77,29.97,29.68,19,12,0,0.00
2013-12-16,28.0,20.5,16.0,26.0,19.4,15.0,95,94,91,30.19,29.98,8,5,0,0.00
2013-12-17,30.0,26.9,19.0,27.0,24.7,18.0,95,91,87,30.15,29.92,6,4,0,0.00
2013-12-18,24.0,17.2,13.0,23.0,16.2,12.0,95,95,94,30.32,29.98,7,5,0,0.00
2013-12-19,45.0,37.3,22.0,31.0,24.8,20.0,95,64,38,30.35,30.16,24,15,0,0.00
2013-12-20,47.0,44.9,41.0,45.0,33.5,19.0,94,67,37,30.15,29.98,19,14,0,0.00
2013-12-21,55.0,50.0,46.0,50.0,45.3,-99.9,94,87,77,30.01,29.83,18,12,0,0.00
2013-12-22,55.0,49.1,47.0,53.0,46.1,41.0,95,90,78,29.96,29.79,21,13,0,0.00
2013-12-27,34.0,25.8,19.0,17.0,12.4,3.0,81,58,41,30.51,30.39,18,11,0,0.00
2013-12-28,44.0,34.6,27.0,20.0,11.6,-99.9,69,43,14,30.41,30.17,19,12,0,0.00
2013-12-29,41.0,33.3,29.0,37.0,29.1,4.0,93,85,21,30.17,29.61,19,10,0,0.00
2013-12-30,29.0,22.1,17.0,26.0,20.6,16.0,95,94,90,30.13,29.85,0,0,0,0.00
2013-12-31,18.0,15.6,13.0,17.0,14.6,12.0,95,94,94,30.40,30.11,0,0,0,0.00
2014-1-1,35.0,26.2,15.0,30.0,20.6,14.0,95,80,56,30.48,30.13,10,2,0,0.00
2014-1-2,32.0,26.9,8.0,29.0,18.8,4.0,95,74,36,30.11,29.58,19,9,0,0.00